createdAt,value
2018-06-15T00:00:09.660Z,17.29
2018-06-15T00:02:38.910Z,17.28
2018-06-15T00:05:08.087Z,17.28
2018-06-15T00:07:37.279Z,17.25
2018-06-15T00:10:06.483Z,17.22
2018-06-15T00:12:35.674Z,17.20
2018-06-15T00:15:22.411Z,17.21
2018-06-15T00:17:54.180Z,17.22
2018-06-15T00:20:23.375Z,17.23
2018-06-15T00:22:52.595Z,17.22
2018-06-15T00:25:21.880Z,17.22
2018-06-15T00:27:51.140Z,17.25
2018-06-15T00:30:20.423Z,17.23
2018-06-15T00:32:49.606Z,17.26
2018-06-15T00:35:18.777Z,17.19
2018-06-15T00:37:47.975Z,17.17
2018-06-15T00:40:17.200Z,17.12
2018-06-15T00:42:46.505Z,17.06
2018-06-15T00:45:15.725Z,17.07
2018-06-15T00:47:45.368Z,17.01
2018-06-15T00:50:14.564Z,17.00
2018-06-15T00:52:44.076Z,16.95
2018-06-15T00:55:13.241Z,16.95
2018-06-15T00:57:46.570Z,16.94
2018-06-15T01:00:16.245Z,16.98
2018-06-15T01:02:45.409Z,16.99
2018-06-15T01:05:14.695Z,17.03
2018-06-15T01:07:43.866Z,17.06
2018-06-15T01:10:12.988Z,17.09
2018-06-15T01:12:42.146Z,17.09
2018-06-15T01:15:11.301Z,17.09
2018-06-15T01:17:40.510Z,17.11
2018-06-15T01:20:09.703Z,17.11
2018-06-15T01:22:38.861Z,17.05
2018-06-15T01:25:07.981Z,17.05
2018-06-15T01:27:37.191Z,17.03
2018-06-15T01:30:07.016Z,17.01
2018-06-15T01:32:36.210Z,16.99
2018-06-15T01:35:05.361Z,16.99
2018-06-15T01:37:34.810Z,16.99
2018-06-15T01:40:04.262Z,16.97
2018-06-15T01:42:33.463Z,16.99
2018-06-15T01:45:02.628Z,17.02
2018-06-15T01:47:31.792Z,17.05
2018-06-15T01:50:00.921Z,17.06
2018-06-15T01:52:30.252Z,17.09
2018-06-15T01:54:59.370Z,17.12
2018-06-15T01:57:28.554Z,17.11
2018-06-15T01:59:58.058Z,17.12
2018-06-15T02:02:27.244Z,17.17
2018-06-15T02:04:56.443Z,17.18
2018-06-15T02:07:25.592Z,17.19
2018-06-15T02:09:54.878Z,17.18
2018-06-15T02:12:24.174Z,17.17
2018-06-15T02:14:54.011Z,17.16
2018-06-15T02:17:23.205Z,17.13
2018-06-15T02:19:52.397Z,17.09
2018-06-15T02:22:21.586Z,17.05
2018-06-15T02:24:50.786Z,16.99
2018-06-15T02:27:19.941Z,16.95
2018-06-15T02:29:49.183Z,16.92
2018-06-15T02:32:18.351Z,16.93
2018-06-15T02:34:47.465Z,16.98
2018-06-15T02:37:16.633Z,17.01
2018-06-15T02:39:45.792Z,17.03
2018-06-15T02:42:14.999Z,17.08
2018-06-15T02:44:44.138Z,17.10
2018-06-15T02:47:13.316Z,17.05
2018-06-15T02:49:59.163Z,17.07
2018-06-15T02:52:30.994Z,17.09
2018-06-15T02:55:00.204Z,17.11
2018-06-15T02:57:29.449Z,17.15
2018-06-15T02:59:58.615Z,17.14
2018-06-15T03:02:28.105Z,17.11
2018-06-15T03:04:57.261Z,17.11
2018-06-15T03:07:26.482Z,17.12
2018-06-15T03:09:55.690Z,17.11
2018-06-15T03:12:24.898Z,17.13
2018-06-15T03:14:54.076Z,17.11
2018-06-15T03:17:23.197Z,17.12
2018-06-15T03:19:52.376Z,17.22
2018-06-15T03:22:21.441Z,17.17
2018-06-15T03:24:50.591Z,17.14
2018-06-15T03:27:19.697Z,17.21
2018-06-15T03:29:48.874Z,17.17
2018-06-15T03:32:18.055Z,17.14
2018-06-15T03:34:47.208Z,17.09
2018-06-15T03:37:16.358Z,17.08
2018-06-15T03:39:45.490Z,17.03
2018-06-15T03:42:14.653Z,17.03
2018-06-15T03:44:43.843Z,17.03
2018-06-15T03:47:13.437Z,17.03
2018-06-15T03:49:42.632Z,17.02
2018-06-15T03:52:11.787Z,17.03
2018-06-15T03:54:41.044Z,16.99
2018-06-15T03:57:10.246Z,16.97
2018-06-15T03:59:39.466Z,16.95
2018-06-15T04:02:08.633Z,16.95
2018-06-15T04:04:37.790Z,16.99
2018-06-15T04:07:06.970Z,17.02
2018-06-15T04:09:36.123Z,17.10
2018-06-15T04:12:05.319Z,17.13
2018-06-15T04:14:34.491Z,17.19
2018-06-15T04:17:03.662Z,17.20
2018-06-15T04:19:32.834Z,17.24
2018-06-15T04:22:02.008Z,17.28
2018-06-15T04:24:31.167Z,17.32
2018-06-15T04:27:00.349Z,17.39
2018-06-15T04:29:29.489Z,17.45
2018-06-15T04:31:59.672Z,17.43
2018-06-15T04:34:28.799Z,17.46
2018-06-15T04:36:57.984Z,17.54
2018-06-15T04:39:27.136Z,17.60
2018-06-15T04:41:56.259Z,17.68
2018-06-15T04:44:25.440Z,17.71
2018-06-15T04:46:54.585Z,17.72
2018-06-15T04:49:23.803Z,17.70
2018-06-15T04:51:52.988Z,17.68
2018-06-15T04:54:22.227Z,17.68
2018-06-15T04:56:51.613Z,17.63
2018-06-15T04:59:21.000Z,17.66
2018-06-15T05:01:50.155Z,17.70
2018-06-15T05:04:19.851Z,17.70
2018-06-15T05:06:49.033Z,17.71
2018-06-15T05:09:20.153Z,17.65
2018-06-15T05:11:49.638Z,17.68
2018-06-15T05:14:18.812Z,17.66
2018-06-15T05:16:48.083Z,17.69
2018-06-15T05:19:17.293Z,17.73
2018-06-15T05:21:46.483Z,17.75
2018-06-15T05:24:15.923Z,17.76
2018-06-15T05:26:45.109Z,17.86
2018-06-15T05:29:14.321Z,18.00
2018-06-15T05:31:43.486Z,18.07
2018-06-15T05:34:12.624Z,18.12
2018-06-15T05:36:41.874Z,18.19
2018-06-15T05:39:11.889Z,18.14
2018-06-15T05:41:41.084Z,18.19
2018-06-15T05:44:10.248Z,18.16
2018-06-15T05:46:39.440Z,18.17
2018-06-15T05:49:08.679Z,18.27
2018-06-15T05:51:37.894Z,18.33
2018-06-15T05:54:07.124Z,18.39
2018-06-15T05:56:36.318Z,18.49
2018-06-15T05:59:05.599Z,18.56
2018-06-15T06:01:34.782Z,18.54
2018-06-15T06:04:04.114Z,18.57
2018-06-15T06:06:33.252Z,18.59
2018-06-15T06:09:02.423Z,18.60
2018-06-15T06:11:31.645Z,18.69
2018-06-15T06:14:00.810Z,18.79
2018-06-15T06:16:30.038Z,18.79
2018-06-15T06:18:59.240Z,18.85
2018-06-15T06:21:28.452Z,18.92
2018-06-15T06:23:57.912Z,18.92
2018-06-15T06:26:27.472Z,18.98
2018-06-15T06:28:56.642Z,19.06
2018-06-15T06:31:25.818Z,19.02
2018-06-15T06:33:55.041Z,18.97
2018-06-15T06:36:24.232Z,18.90
2018-06-15T06:38:53.404Z,18.83
2018-06-15T06:41:22.644Z,18.86
2018-06-15T06:43:51.839Z,18.87
2018-06-15T06:46:20.968Z,18.91
2018-06-15T06:48:50.224Z,18.94
2018-06-15T06:51:19.432Z,18.95
2018-06-15T06:53:48.625Z,19.00
2018-06-15T06:56:17.818Z,19.14
2018-06-15T06:58:47.118Z,19.18
2018-06-15T07:01:16.311Z,19.21
2018-06-15T07:03:45.526Z,19.23
2018-06-15T07:06:14.706Z,19.30
2018-06-15T07:08:44.283Z,19.35
2018-06-15T07:11:13.686Z,19.53
2018-06-15T07:13:42.930Z,19.78
2018-06-15T07:16:12.093Z,19.91
2018-06-15T07:18:41.716Z,19.95
2018-06-15T07:21:10.907Z,20.06
2018-06-15T07:23:40.231Z,20.08
2018-06-15T07:26:09.435Z,20.01
2018-06-15T07:28:38.668Z,19.99
2018-06-15T07:31:07.890Z,20.04
2018-06-15T07:33:37.341Z,20.06
2018-06-15T07:36:06.520Z,19.97
2018-06-15T07:38:35.768Z,20.05
2018-06-15T07:41:04.979Z,20.20
2018-06-15T07:43:34.182Z,20.18
2018-06-15T07:46:03.535Z,20.17
2018-06-15T07:48:32.693Z,20.21
2018-06-15T07:51:01.871Z,20.44
2018-06-15T07:53:31.189Z,20.64
2018-06-15T07:56:00.480Z,20.89
2018-06-15T07:58:29.657Z,21.22
2018-06-15T08:00:58.986Z,21.32
2018-06-15T08:03:28.265Z,21.27
2018-06-15T08:05:57.448Z,21.34
2018-06-15T08:08:26.683Z,21.33
2018-06-15T08:10:56.004Z,21.33
2018-06-15T08:13:25.184Z,21.31
2018-06-15T08:15:54.478Z,21.21
2018-06-15T08:18:23.699Z,21.19
2018-06-15T08:20:54.007Z,21.07
2018-06-15T08:23:23.196Z,21.11
2018-06-15T08:25:52.426Z,21.02
2018-06-15T08:28:21.667Z,20.96
2018-06-15T08:30:50.890Z,20.96
2018-06-15T08:33:20.046Z,21.07
2018-06-15T08:35:49.552Z,21.12
2018-06-15T08:38:18.888Z,21.08
2018-06-15T08:40:48.162Z,21.10
2018-06-15T08:43:17.494Z,21.16
2018-06-15T08:45:46.701Z,21.18
2018-06-15T08:48:15.957Z,21.30
2018-06-15T08:50:45.302Z,21.22
2018-06-15T08:53:14.862Z,21.28
2018-06-15T08:55:44.348Z,21.40
2018-06-15T08:58:13.698Z,21.51
2018-06-15T09:00:42.945Z,21.64
2018-06-15T09:03:13.204Z,21.76
2018-06-15T09:05:42.635Z,22.04
2018-06-15T09:08:12.104Z,22.15
2018-06-15T09:10:41.475Z,22.19
2018-06-15T09:13:10.781Z,22.29
2018-06-15T09:15:40.155Z,22.35
2018-06-15T09:18:09.505Z,22.53
2018-06-15T09:20:38.860Z,22.42
2018-06-15T09:23:08.111Z,22.46
2018-06-15T09:25:37.503Z,22.43
2018-06-15T09:28:06.914Z,22.66
2018-06-15T09:30:36.217Z,22.57
2018-06-15T09:33:05.471Z,22.58
2018-06-15T09:35:34.710Z,22.72
2018-06-15T09:38:04.054Z,22.82
2018-06-15T09:40:33.408Z,22.92
2018-06-15T09:43:02.633Z,22.99
2018-06-15T09:45:32.049Z,23.00
2018-06-15T09:48:01.418Z,23.07
2018-06-15T09:50:30.742Z,23.01
2018-06-15T09:53:00.017Z,22.83
2018-06-15T09:55:29.314Z,22.87
2018-06-15T09:57:58.643Z,22.87
2018-06-15T10:00:33.174Z,22.58
2018-06-15T10:03:02.470Z,22.50
2018-06-15T10:05:31.919Z,22.62
2018-06-15T10:08:01.168Z,22.69
2018-06-15T10:10:30.473Z,22.56
2018-06-15T10:12:59.874Z,22.35
2018-06-15T10:15:29.255Z,22.49
2018-06-15T10:17:58.572Z,22.74
2018-06-15T10:20:29.034Z,22.99
2018-06-15T10:22:58.308Z,23.12
2018-06-15T10:25:27.522Z,23.07
2018-06-15T10:27:56.760Z,23.24
2018-06-15T10:30:26.183Z,23.26
2018-06-15T10:32:55.562Z,23.34
2018-06-15T10:35:24.859Z,23.44
2018-06-15T10:37:54.329Z,23.30
2018-06-15T10:40:23.665Z,23.32
2018-06-15T10:42:53.103Z,23.35
2018-06-15T10:45:23.276Z,23.35
2018-06-15T10:47:52.746Z,23.41
2018-06-15T10:50:22.136Z,23.32
2018-06-15T10:52:51.362Z,23.26
2018-06-15T10:55:20.822Z,23.30
2018-06-15T10:57:50.021Z,23.17
2018-06-15T11:00:19.372Z,23.11
2018-06-15T11:02:48.716Z,23.01
2018-06-15T11:05:18.074Z,22.99
2018-06-15T11:07:47.344Z,22.93
2018-06-15T11:10:16.582Z,23.03
2018-06-15T11:12:45.878Z,23.16
2018-06-15T11:15:15.099Z,23.33
2018-06-15T11:17:44.418Z,23.36
2018-06-15T11:20:13.612Z,23.31
2018-06-15T11:22:42.942Z,23.29
2018-06-15T11:25:12.235Z,23.49
2018-06-15T11:27:41.480Z,23.83
2018-06-15T11:30:10.799Z,23.95
2018-06-15T11:32:40.031Z,24.04
2018-06-15T11:35:09.302Z,24.18
2018-06-15T11:37:38.484Z,24.34
2018-06-15T11:40:07.641Z,24.30
2018-06-15T11:42:36.860Z,23.98
2018-06-15T11:45:06.130Z,24.13
2018-06-15T11:47:35.512Z,24.33
2018-06-15T11:50:04.955Z,24.91
2018-06-15T11:52:34.069Z,25.57
2018-06-15T11:55:03.379Z,26.16
2018-06-15T11:57:32.642Z,26.51
2018-06-15T12:00:01.832Z,27.09
2018-06-15T12:02:31.003Z,27.61
2018-06-15T12:05:00.310Z,27.50
2018-06-15T12:07:29.793Z,27.51
2018-06-15T12:09:58.997Z,27.62
2018-06-15T12:12:28.259Z,27.77
2018-06-15T12:14:57.392Z,27.83
2018-06-15T12:17:26.629Z,27.57
2018-06-15T12:19:55.992Z,27.91
2018-06-15T12:22:25.336Z,28.47
2018-06-15T12:24:54.576Z,28.58
2018-06-15T12:27:23.770Z,28.74
2018-06-15T12:29:53.048Z,28.90
2018-06-15T12:32:22.369Z,28.58
2018-06-15T12:34:51.630Z,28.84
2018-06-15T12:37:20.838Z,29.29
2018-06-15T12:39:50.675Z,29.23
2018-06-15T12:42:19.931Z,28.87
2018-06-15T12:44:49.186Z,28.34
2018-06-15T12:47:18.541Z,27.82
2018-06-15T12:49:47.826Z,27.55
2018-06-15T12:52:17.041Z,27.31
2018-06-15T12:54:46.645Z,27.78
2018-06-15T12:57:15.955Z,28.11
2018-06-15T12:59:45.136Z,28.65
2018-06-15T13:02:14.433Z,29.04
2018-06-15T13:04:43.634Z,29.25
2018-06-15T13:07:12.876Z,29.41
2018-06-15T13:09:42.060Z,29.47
2018-06-15T13:12:12.070Z,29.51
2018-06-15T13:14:41.318Z,29.35
2018-06-15T13:17:10.556Z,29.41
2018-06-15T13:19:39.851Z,29.51
2018-06-15T13:22:09.495Z,29.04
2018-06-15T13:24:38.706Z,29.09
2018-06-15T13:27:08.061Z,28.37
2018-06-15T13:29:37.384Z,27.99
2018-06-15T13:32:06.769Z,27.91
2018-06-15T13:34:35.971Z,27.85
2018-06-15T13:37:05.478Z,28.25
2018-06-15T13:39:34.858Z,28.72
2018-06-15T13:42:04.250Z,29.26
2018-06-15T13:44:33.642Z,29.48
2018-06-15T13:47:03.278Z,29.82
2018-06-15T13:49:32.413Z,29.33
2018-06-15T13:52:01.767Z,28.59
2018-06-15T13:54:30.973Z,28.22
2018-06-15T13:57:00.169Z,28.34
2018-06-15T13:59:29.300Z,28.08
2018-06-15T14:01:58.428Z,28.46
2018-06-15T14:04:28.163Z,29.01
2018-06-15T14:06:57.484Z,29.41
2018-06-15T14:09:26.618Z,28.64
2018-06-15T14:11:55.861Z,28.74
2018-06-15T14:14:25.100Z,28.76
2018-06-15T14:16:54.412Z,28.37
2018-06-15T14:19:23.704Z,28.32
2018-06-15T14:21:53.199Z,28.29
2018-06-15T14:24:22.915Z,28.85
2018-06-15T14:26:52.221Z,29.74
2018-06-15T14:29:21.450Z,30.20
2018-06-15T14:31:50.715Z,30.30
2018-06-15T14:34:19.943Z,30.15
2018-06-15T14:36:49.108Z,29.93
2018-06-15T14:39:18.349Z,29.98
2018-06-15T14:41:47.554Z,30.03
2018-06-15T14:44:16.802Z,29.92
2018-06-15T14:46:46.005Z,29.48
2018-06-15T14:49:15.201Z,29.35
2018-06-15T14:51:44.346Z,29.01
2018-06-15T14:54:13.592Z,28.28
2018-06-15T14:56:43.162Z,27.58
2018-06-15T14:59:12.286Z,27.29
2018-06-15T15:01:41.573Z,27.71
2018-06-15T15:04:10.792Z,28.07
2018-06-15T15:06:39.988Z,28.49
2018-06-15T15:09:09.671Z,28.71
2018-06-15T15:11:38.867Z,28.38
2018-06-15T15:14:08.112Z,28.54
2018-06-15T15:16:37.509Z,28.46
2018-06-15T15:19:06.850Z,28.71
2018-06-15T15:21:36.156Z,29.05
2018-06-15T15:24:05.501Z,28.90
2018-06-15T15:26:34.800Z,28.78
2018-06-15T15:29:04.980Z,28.80
2018-06-15T15:31:34.903Z,28.63
2018-06-15T15:34:04.140Z,28.33
2018-06-15T15:36:33.387Z,28.11
2018-06-15T15:39:02.688Z,27.89
2018-06-15T15:41:31.913Z,27.57
2018-06-15T15:44:01.207Z,27.16
2018-06-15T15:46:30.435Z,26.50
2018-06-15T15:48:59.657Z,26.43
2018-06-15T15:51:28.926Z,26.86
2018-06-15T15:53:58.348Z,27.12
2018-06-15T15:56:27.623Z,27.32
2018-06-15T15:58:57.204Z,27.38
2018-06-15T16:01:26.598Z,27.38
2018-06-15T16:03:55.729Z,27.33
2018-06-15T16:06:25.737Z,27.26
2018-06-15T16:08:55.007Z,27.12
2018-06-15T16:11:24.242Z,26.87
2018-06-15T16:13:53.562Z,26.63
2018-06-15T16:16:22.778Z,26.52
2018-06-15T16:18:51.923Z,26.40
2018-06-15T16:21:21.686Z,26.14
2018-06-15T16:23:50.933Z,25.98
2018-06-15T16:26:20.111Z,25.84
2018-06-15T16:28:49.340Z,25.90
2018-06-15T16:31:18.568Z,25.91
2018-06-15T16:33:47.823Z,25.90
2018-06-15T16:36:17.126Z,25.70
2018-06-15T16:38:46.332Z,25.63
2018-06-15T16:41:15.529Z,25.57
2018-06-15T16:43:44.930Z,25.69
2018-06-15T16:46:14.253Z,25.70
2018-06-15T16:48:43.444Z,25.64
2018-06-15T16:51:12.672Z,25.58
2018-06-15T16:53:41.846Z,25.53
2018-06-15T16:56:11.546Z,25.57
2018-06-15T16:58:40.813Z,25.65
2018-06-15T17:01:09.999Z,25.65
2018-06-15T17:03:39.198Z,25.55
2018-06-15T17:06:08.363Z,25.48
2018-06-15T17:08:37.702Z,25.43
2018-06-15T17:11:06.861Z,25.46
2018-06-15T17:13:36.035Z,25.47
2018-06-15T17:16:05.622Z,25.44
2018-06-15T17:18:34.941Z,25.38
2018-06-15T17:21:04.140Z,25.30
2018-06-15T17:23:33.256Z,25.11
2018-06-15T17:26:02.722Z,25.04
2018-06-15T17:28:31.914Z,25.10
2018-06-15T17:31:01.152Z,25.05
2018-06-15T17:33:30.311Z,25.03
2018-06-15T17:35:59.513Z,25.06
2018-06-15T17:38:28.657Z,24.95
2018-06-15T17:40:58.003Z,24.92
2018-06-15T17:43:27.224Z,24.93
2018-06-15T17:45:56.418Z,24.80
2018-06-15T17:48:25.577Z,24.72
2018-06-15T17:50:54.811Z,24.67
2018-06-15T17:53:23.991Z,24.61
2018-06-15T17:55:53.320Z,24.59
2018-06-15T17:58:22.507Z,24.58
2018-06-15T18:00:51.794Z,24.59
2018-06-15T18:03:21.149Z,24.55
2018-06-15T18:05:50.419Z,24.50
2018-06-15T18:08:19.591Z,24.48
2018-06-15T18:10:48.750Z,24.49
2018-06-15T18:13:18.043Z,24.40
2018-06-15T18:15:47.260Z,24.32
2018-06-15T18:18:16.402Z,24.26
2018-06-15T18:20:45.555Z,24.26
2018-06-15T18:23:14.852Z,24.21
2018-06-15T18:25:44.044Z,24.17
2018-06-15T18:28:13.225Z,24.19
2018-06-15T18:30:42.371Z,24.15
2018-06-15T18:33:11.582Z,24.10
2018-06-15T18:35:40.755Z,24.09
2018-06-15T18:38:09.858Z,24.09
2018-06-15T18:40:39.098Z,24.23
2018-06-15T18:43:08.370Z,24.14
2018-06-15T18:45:37.516Z,24.11
2018-06-15T18:48:06.837Z,24.14
2018-06-15T18:50:36.021Z,24.22
2018-06-15T18:53:05.263Z,24.18
2018-06-15T18:55:35.065Z,24.17
2018-06-15T18:58:07.267Z,24.10
2018-06-15T19:00:36.427Z,24.05
2018-06-15T19:03:06.001Z,24.07
2018-06-15T19:05:35.170Z,24.03
2018-06-15T19:08:04.450Z,23.95
2018-06-15T19:10:33.674Z,23.83
2018-06-15T19:13:02.907Z,23.86
2018-06-15T19:15:32.176Z,23.82
2018-06-15T19:18:01.435Z,23.75
2018-06-15T19:20:30.681Z,23.70
2018-06-15T19:22:59.923Z,23.61
2018-06-15T19:25:29.048Z,23.61
2018-06-15T19:27:58.201Z,23.62
2018-06-15T19:30:27.429Z,23.64
2018-06-15T19:32:56.612Z,23.48
2018-06-15T19:35:25.817Z,23.40
2018-06-15T19:37:55.030Z,23.30
2018-06-15T19:40:24.251Z,23.25
2018-06-15T19:42:53.497Z,23.17
2018-06-15T19:45:22.790Z,23.09
2018-06-15T19:47:52.021Z,23.10
2018-06-15T19:50:21.230Z,23.01
2018-06-15T19:52:50.423Z,22.96
2018-06-15T19:55:19.600Z,22.87
2018-06-15T19:57:48.811Z,22.79
2018-06-15T20:00:18.136Z,22.75
2018-06-15T20:02:47.522Z,22.71
2018-06-15T20:05:16.746Z,22.63
2018-06-15T20:07:45.930Z,22.58
2018-06-15T20:10:15.239Z,22.50
2018-06-15T20:12:44.551Z,22.43
2018-06-15T20:15:13.756Z,22.37
2018-06-15T20:17:42.929Z,22.32
2018-06-15T20:20:12.142Z,22.29
2018-06-15T20:22:41.296Z,22.29
2018-06-15T20:25:10.449Z,22.27
2018-06-15T20:27:39.797Z,22.25
2018-06-15T20:30:09.467Z,22.22
2018-06-15T20:32:38.646Z,22.16
2018-06-15T20:35:07.872Z,22.13
2018-06-15T20:37:37.040Z,22.08
2018-06-15T20:40:06.231Z,22.00
2018-06-15T20:42:35.336Z,22.01
2018-06-15T20:45:04.591Z,22.00
2018-06-15T20:47:33.736Z,21.97
2018-06-15T20:50:03.109Z,21.96
2018-06-15T20:52:32.355Z,21.93
2018-06-15T20:55:01.554Z,21.88
2018-06-15T20:57:30.757Z,21.85
2018-06-15T20:59:59.982Z,21.82
2018-06-15T21:02:29.142Z,21.79
2018-06-15T21:04:58.363Z,21.76
2018-06-15T21:07:27.619Z,21.75
2018-06-15T21:09:56.834Z,21.74
2018-06-15T21:12:26.016Z,21.73
2018-06-15T21:14:55.176Z,21.74
2018-06-15T21:17:24.352Z,21.79
2018-06-15T21:19:53.552Z,21.81
2018-06-15T21:22:22.785Z,21.83
2018-06-15T21:24:52.003Z,21.86
2018-06-15T21:27:21.145Z,21.87
2018-06-15T21:29:57.002Z,21.85
2018-06-15T21:32:26.125Z,21.86
2018-06-15T21:34:55.269Z,21.85
2018-06-15T21:37:24.549Z,21.82
2018-06-15T21:39:53.733Z,21.82
2018-06-15T21:42:22.891Z,21.83
2018-06-15T21:44:52.084Z,21.83
2018-06-15T21:47:21.232Z,21.83
2018-06-15T21:49:50.399Z,21.82
2018-06-15T21:52:19.663Z,21.82
2018-06-15T21:54:48.811Z,21.81
2018-06-15T21:57:17.979Z,21.80
2018-06-15T21:59:47.232Z,21.79
2018-06-15T22:02:16.544Z,21.73
2018-06-15T22:04:45.710Z,21.75
2018-06-15T22:07:14.869Z,21.72
2018-06-15T22:09:44.080Z,21.72
2018-06-15T22:12:13.231Z,21.69
2018-06-15T22:14:42.641Z,21.63
2018-06-15T22:17:11.847Z,21.60
2018-06-15T22:19:41.053Z,21.57
2018-06-15T22:22:10.225Z,21.52
2018-06-15T22:24:39.391Z,21.46
2018-06-15T22:27:08.594Z,21.42
2018-06-15T22:29:37.815Z,21.34
2018-06-15T22:32:06.995Z,21.26
2018-06-15T22:34:36.232Z,21.18
2018-06-15T22:37:05.404Z,21.12
2018-06-15T22:39:34.577Z,21.04
2018-06-15T22:42:04.017Z,20.98
2018-06-15T22:44:33.288Z,20.93
2018-06-15T22:47:02.454Z,20.88
2018-06-15T22:49:31.576Z,20.82
2018-06-15T22:52:00.783Z,20.79
2018-06-15T22:54:30.018Z,20.75
2018-06-15T22:56:59.281Z,20.73
2018-06-15T22:59:28.428Z,20.70
2018-06-15T23:01:57.671Z,20.64
2018-06-15T23:04:26.905Z,20.61
2018-06-15T23:06:56.222Z,20.62
2018-06-15T23:09:25.454Z,20.58
2018-06-15T23:11:54.647Z,20.56
2018-06-15T23:14:23.918Z,20.53
2018-06-15T23:16:53.120Z,20.46
2018-06-15T23:19:22.304Z,20.44
2018-06-15T23:21:51.539Z,20.40
2018-06-15T23:24:20.833Z,20.38
2018-06-15T23:26:50.058Z,20.37
2018-06-15T23:29:19.260Z,20.36
2018-06-15T23:31:48.453Z,20.34
2018-06-15T23:34:17.635Z,20.28
2018-06-15T23:36:46.896Z,20.26
2018-06-15T23:39:16.921Z,20.22
2018-06-15T23:41:46.109Z,20.19
2018-06-15T23:44:15.302Z,20.17
2018-06-15T23:46:44.509Z,20.13
2018-06-15T23:49:13.651Z,20.13
2018-06-15T23:51:42.856Z,20.14
2018-06-15T23:54:12.110Z,20.14
2018-06-15T23:56:41.305Z,20.12
2018-06-15T23:59:10.815Z,20.11
